Time;durP1;ratioP1;P1;durP2;ratioP2;P2;SDS_P1;SDS_P2;PMS_P1;PMS_P2;Temp;Humidity;BMP_temperature;BMP_pressure;BME280_temperature;BME280_humidity;BME280_pressure;Samples;Min_cycle;Max_cycle;Signal;HPM_P1;HPM_P2
2022/08/08 00:00:00;;;;;;;0.73;0.60;;;13.90;99.90;;;;;;5114272;28;20152;-75
2022/08/08 00:02:26;;;;;;;1.00;1.00;;;13.90;99.90;;;;;;5096082;28;20308;-76
2022/08/08 00:05:11;;;;;;;1.75;1.17;;;13.90;99.90;;;;;;5114009;28;20109;-76
2022/08/08 00:07:58;;;;;;;1.35;0.85;;;13.80;99.90;;;;;;5095832;28;20039;-76
2022/08/08 00:10:48;;;;;;;1.10;1.00;;;13.80;99.90;;;;;;5114013;28;20076;-76
2022/08/08 00:13:23;;;;;;;0.88;0.70;;;13.80;99.90;;;;;;5114018;28;20026;-76
2022/08/08 00:16:03;;;;;;;1.33;1.20;;;13.80;99.90;;;;;;5095641;28;20033;-76
2022/08/08 00:18:43;;;;;;;0.40;0.40;;;13.80;99.90;;;;;;5114459;28;20100;-76
2022/08/08 00:21:23;;;;;;;0.90;0.90;;;13.80;99.90;;;;;;5095723;28;20024;-76
2022/08/08 00:24:02;;;;;;;0.82;0.82;;;13.60;99.90;;;;;;5095740;28;20020;-76
2022/08/08 00:26:40;;;;;;;0.85;0.57;;;13.60;99.90;;;;;;5113902;28;20380;-76
2022/08/08 00:29:21;;;;;;;1.10;1.00;;;13.60;99.90;;;;;;5114041;28;20016;-76
2022/08/08 00:31:49;;;;;;;1.52;0.95;;;13.60;99.90;;;;;;5113880;28;20030;-76
2022/08/08 00:37:45;;;;;;;2.45;1.70;;;13.60;99.90;;;;;;5113840;28;20069;-76
2022/08/08 00:40:29;;;;;;;0.85;0.60;;;13.60;99.90;;;;;;5113776;28;20012;-76
2022/08/08 00:43:32;;;;;;;0.90;0.90;;;13.50;99.90;;;;;;5113835;28;20484;-76
2022/08/08 00:46:39;;;;;;;0.70;0.70;;;13.50;99.90;;;;;;5113648;28;20035;-76
2022/08/08 00:49:20;;;;;;;1.10;0.57;;;13.50;99.90;;;;;;5113746;28;20024;-76
2022/08/08 00:52:23;;;;;;;1.00;1.00;;;13.40;99.90;;;;;;5113422;28;20484;-76
2022/08/08 00:55:10;;;;;;;1.13;0.93;;;13.40;99.90;;;;;;5113685;28;20035;-76
2022/08/08 00:57:39;;;;;;;1.20;1.13;;;13.40;99.90;;;;;;5113589;28;20141;-76
2022/08/08 01:00:18;;;;;;;0.60;0.60;;;13.40;99.90;;;;;;5114927;28;20020;-76
2022/08/08 01:03:09;;;;;;;1.03;1.03;;;13.40;99.90;;;;;;5117514;28;20016;-76
2022/08/08 01:05:53;;;;;;;1.73;0.82;;;13.40;99.90;;;;;;5099293;28;20506;-76
2022/08/08 01:08:56;;;;;;;1.33;1.23;;;13.40;99.90;;;;;;5117598;28;20098;-76
2022/08/08 01:11:46;;;;;;;0.75;0.75;;;13.30;99.90;;;;;;5117501;28;20094;-76
2022/08/08 01:14:30;;;;;;;;;;;13.20;99.90;;;;;;5117701;28;20472;-76
2022/08/08 01:17:17;;;;;;;1.00;1.00;;;13.20;99.90;;;;;;5117329;28;19949;-76
2022/08/08 01:20:10;;;;;;;0.40;0.40;;;13.20;99.90;;;;;;5117249;28;20019;-75
2022/08/08 01:22:55;;;;;;;1.75;1.13;;;13.10;99.90;;;;;;5099143;28;20448;-76
2022/08/08 01:25:21;;;;;;;2.22;1.00;;;;;;;;;;5117104;28;20027;-76
2022/08/08 01:28:09;;;;;;;1.15;1.15;;;13.00;99.90;;;;;;5098850;28;20028;-76
2022/08/08 01:30:52;;;;;;;0.45;0.43;;;13.00;99.90;;;;;;5117065;28;20406;-76
2022/08/08 01:33:48;;;;;;;0.77;0.77;;;12.90;99.90;;;;;;5098810;28;20502;-77
2022/08/08 01:36:39;;;;;;;0.82;0.82;;;12.90;99.90;;;;;;5117206;28;20499;-76
2022/08/08 01:39:07;;;;;;;1.38;1.27;;;12.90;99.90;;;;;;5116818;28;20020;-76
2022/08/08 01:42:00;;;;;;;0.75;0.75;;;12.70;99.90;;;;;;5116877;28;20069;-76
2022/08/08 01:44:38;;;;;;;1.58;0.73;;;12.70;99.90;;;;;;5116740;28;20507;-76
2022/08/08 01:47:27;;;;;;;0.70;0.70;;;12.60;99.90;;;;;;5116741;28;20030;-75
2022/08/08 01:50:09;;;;;;;0.45;0.45;;;12.60;99.90;;;;;;5116640;28;20028;-76
2022/08/08 01:52:50;;;;;;;1.38;0.60;;;;;;;;;;5116660;28;20077;-76
2022/08/08 01:55:36;;;;;;;1.55;1.35;;;12.60;99.90;;;;;;5116837;28;20503;-74
2022/08/08 01:58:01;;;;;;;0.60;0.60;;;12.50;99.90;;;;;;5098638;28;20482;-76
2022/08/08 02:00:53;;;;;;;0.35;0.35;;;12.50;99.90;;;;;;5116447;28;20492;-76
2022/08/08 02:03:54;;;;;;;0.77;0.77;;;12.50;99.90;;;;;;5098314;28;20047;-76
2022/08/08 02:06:40;;;;;;;0.77;0.43;;;12.50;99.90;;;;;;5116244;28;20066;-76
2022/08/08 02:09:30;;;;;;;2.08;0.70;;;12.40;99.90;;;;;;5116505;28;20068;-76
2022/08/08 02:12:03;;;;;;;0.70;0.70;;;12.40;99.90;;;;;;5115594;28;20027;-76
2022/08/08 02:14:41;;;;;;;0.70;0.70;;;12.40;99.90;;;;;;5097954;28;20068;-76
2022/08/08 02:17:28;;;;;;;0.45;0.45;;;12.40;99.90;;;;;;5097984;28;20464;-76
2022/08/08 02:20:20;;;;;;;0.45;0.45;;;12.40;99.90;;;;;;5116054;28;20054;-76
2022/08/08 02:23:30;;;;;;;0.50;0.50;;;12.40;99.90;;;;;;5116059;28;20099;-76
2022/08/08 02:26:13;;;;;;;0.40;0.40;;;12.30;99.90;;;;;;5115904;28;20027;-76
2022/08/08 02:28:59;;;;;;;0.95;0.60;;;12.30;99.90;;;;;;5115856;28;20024;-77
2022/08/08 02:31:43;;;;;;;1.65;0.73;;;12.20;99.90;;;;;;5115542;28;20395;-76
2022/08/08 02:34:44;;;;;;;0.60;0.60;;;12.10;99.90;;;;;;5115934;28;20019;-76
2022/08/08 02:37:23;;;;;;;0.43;0.43;;;;;;;;;;5115841;28;20032;-76
2022/08/08 02:40:20;;;;;;;0.22;0.22;;;12.10;99.90;;;;;;5115792;28;20097;-76
2022/08/08 02:43:04;;;;;;;0.40;0.40;;;12.00;99.90;;;;;;5115684;28;20055;-76
2022/08/08 02:45:51;;;;;;;1.40;0.73;;;12.00;99.90;;;;;;5115563;28;20032;-76
2022/08/08 02:48:39;;;;;;;0.65;0.57;;;12.00;99.90;;;;;;5115522;28;20471;-76
2022/08/08 02:51:05;;;;;;;0.77;0.77;;;;;;;;;;5115686;28;20031;-76
2022/08/08 02:53:56;;;;;;;0.50;0.50;;;11.90;99.90;;;;;;5115450;28;20051;-76
2022/08/08 02:56:52;;;;;;;0.52;0.52;;;11.90;99.90;;;;;;5097802;28;20034;-76
2022/08/08 02:59:30;;;;;;;0.47;0.40;;;12.00;99.90;;;;;;5115283;28;20019;-77
2022/08/08 03:01:58;;;;;;;0.47;0.47;;;12.80;99.90;;;;;;5115287;28;20027;-76
2022/08/08 03:04:33;;;;;;;0.30;0.30;;;11.80;99.90;;;;;;5115098;28;20117;-76
2022/08/08 03:07:36;;;;;;;0.30;0.30;;;11.80;99.90;;;;;;5115231;28;20031;-76
2022/08/08 03:10:02;;;;;;;0.25;0.25;;;11.70;99.90;;;;;;5096947;28;20020;-76
2022/08/08 03:12:49;;;;;;;1.02;0.68;;;11.70;99.90;;;;;;5115189;28;20137;-76
2022/08/08 03:15:33;;;;;;;0.45;0.30;;;11.70;99.90;;;;;;5096598;28;20027;-76
2022/08/08 03:18:06;;;;;;;0.70;0.50;;;11.70;99.90;;;;;;5115106;28;20148;-76
2022/08/08 03:20:46;;;;;;;0.70;0.70;;;11.50;99.90;;;;;;5096689;28;20079;-76
2022/08/08 03:23:12;;;;;;;0.40;0.40;;;11.50;99.90;;;;;;5114668;28;20031;-75
2022/08/08 03:25:39;;;;;;;0.50;0.50;;;11.40;99.90;;;;;;5096512;28;20474;-76
2022/08/08 03:28:15;;;;;;;1.55;1.20;;;11.40;99.90;;;;;;5096578;28;20023;-76
2022/08/08 03:30:45;;;;;;;0.50;0.50;;;11.40;99.90;;;;;;5096482;28;20072;-76
2022/08/08 03:33:17;;;;;;;0.40;0.40;;;11.50;99.90;;;;;;5096423;28;20030;-76
2022/08/08 03:35:44;;;;;;;0.30;0.30;;;11.40;99.90;;;;;;5114724;28;20024;-76
2022/08/08 03:38:10;;;;;;;1.13;0.57;;;11.50;99.90;;;;;;5114504;28;20507;-76
2022/08/08 03:40:36;;;;;;;0.50;0.50;;;13.40;99.90;;;;;;5114526;28;20468;-76
2022/08/08 03:43:05;;;;;;;0.60;0.60;;;11.50;99.90;;;;;;5114845;28;20093;-76
2022/08/08 03:45:34;;;;;;;0.30;0.30;;;11.50;99.90;;;;;;5114699;28;20031;-75
2022/08/08 03:48:02;;;;;;;0.85;0.45;;;11.50;99.90;;;;;;5114496;28;20016;-76
2022/08/08 03:50:30;;;;;;;0.65;0.55;;;11.50;99.90;;;;;;5114493;28;20062;-76
2022/08/08 03:52:56;;;;;;;0.73;0.73;;;11.50;99.90;;;;;;5114221;28;20040;-76
2022/08/08 03:55:23;;;;;;;0.52;0.52;;;11.40;99.90;;;;;;5114215;28;20039;-76
2022/08/08 03:57:51;;;;;;;0.30;0.30;;;11.40;99.90;;;;;;5096197;28;20034;-76
2022/08/08 04:00:22;;;;;;;0.45;0.40;;;11.30;99.90;;;;;;5114213;28;20019;-76
2022/08/08 04:03:07;;;;;;;0.32;0.32;;;11.30;99.90;;;;;;5114416;28;20028;-76
2022/08/08 04:05:35;;;;;;;0.40;0.40;;;11.30;99.90;;;;;;5114144;28;20024;-76
2022/08/08 04:08:06;;;;;;;2.17;0.80;;;11.30;99.90;;;;;;5114253;28;20107;-76
2022/08/08 04:10:33;;;;;;;0.30;0.30;;;11.30;99.90;;;;;;5114159;28;20015;-76
2022/08/08 04:13:02;;;;;;;0.43;0.43;;;11.30;99.90;;;;;;5114112;28;20028;-76
2022/08/08 04:15:28;;;;;;;;;;;11.30;99.90;;;;;;5114402;28;20096;-76
2022/08/08 04:17:54;;;;;;;0.68;0.68;;;11.20;99.90;;;;;;5095735;28;20360;-76
2022/08/08 04:20:19;;;;;;;0.40;0.40;;;11.20;99.90;;;;;;5095851;28;20052;-77
2022/08/08 04:22:49;;;;;;;0.30;0.30;;;11.10;99.90;;;;;;5113989;28;20055;-76
2022/08/08 04:25:14;;;;;;;0.30;0.30;;;11.00;99.90;;;;;;5095815;28;20035;-76
2022/08/08 04:27:43;;;;;;;0.45;0.45;;;10.90;99.90;;;;;;5114350;28;20034;-76
2022/08/08 04:30:09;;;;;;;0.43;0.43;;;;;;;;;;5095644;28;20024;-76
2022/08/08 04:32:35;;;;;;;0.75;0.75;;;10.90;99.90;;;;;;5113953;28;20023;-76
2022/08/08 04:35:01;;;;;;;0.77;0.70;;;10.90;99.90;;;;;;5115065;28;20019;-76
2022/08/08 04:37:26;;;;;;;0.30;0.30;;;10.80;99.90;;;;;;5118131;28;20066;-76
2022/08/08 04:39:52;;;;;;;0.50;0.50;;;10.80;99.90;;;;;;5118128;28;20016;-76
2022/08/08 04:42:18;;;;;;;0.95;0.95;;;10.70;99.90;;;;;;5118142;28;20019;-76
2022/08/08 04:44:44;;;;;;;0.50;0.50;;;10.80;99.90;;;;;;5117988;28;20015;-76
2022/08/08 04:47:12;;;;;;;0.30;0.30;;;10.80;99.90;;;;;;5117976;28;20102;-76
2022/08/08 04:49:38;;;;;;;1.08;0.60;;;11.00;99.90;;;;;;5117849;28;20062;-76
2022/08/08 04:52:04;;;;;;;2.97;0.73;;;10.90;99.90;;;;;;5117708;28;20039;-75
2022/08/08 04:54:30;;;;;;;0.50;0.50;;;;;;;;;;5117801;28;20020;-76
2022/08/08 04:56:56;;;;;;;1.48;0.73;;;11.10;99.90;;;;;;5117783;28;20016;-76
2022/08/08 04:59:22;;;;;;;0.38;0.38;;;11.10;99.90;;;;;;5117883;28;20073;-76
2022/08/08 05:01:48;;;;;;;0.80;0.80;;;11.20;99.90;;;;;;5099427;28;20023;-76
2022/08/08 05:04:13;;;;;;;0.40;0.40;;;11.30;99.90;;;;;;5117750;28;20050;-75
2022/08/08 05:06:39;;;;;;;0.40;0.40;;;11.40;99.90;;;;;;5117444;28;20036;-76
2022/08/08 05:09:05;;;;;;;0.30;0.30;;;11.30;99.90;;;;;;5099283;28;20047;-76
2022/08/08 05:11:31;;;;;;;0.68;0.60;;;11.50;99.90;;;;;;5117482;28;20028;-76
2022/08/08 05:13:57;;;;;;;0.50;0.45;;;11.60;99.90;;;;;;5117459;28;20020;-76
2022/08/08 05:16:23;;;;;;;0.40;0.40;;;;;;;;;;5117452;28;20031;-76
2022/08/08 05:18:58;;;;;;;0.40;0.40;;;11.90;99.90;;;;;;5117352;28;20027;-76
2022/08/08 05:21:23;;;;;;;0.40;0.40;;;12.00;99.90;;;;;;5117513;28;20030;-76
2022/08/08 05:23:50;;;;;;;0.30;0.30;;;12.10;99.90;;;;;;5117292;28;20027;-76
2022/08/08 05:26:16;;;;;;;0.65;0.65;;;12.20;99.90;;;;;;5117048;28;20038;-76
2022/08/08 05:28:42;;;;;;;2.92;0.52;;;12.30;99.90;;;;;;5117082;28;20024;-77
2022/08/08 05:31:10;;;;;;;0.60;0.60;;;12.40;99.90;;;;;;5098742;28;20023;-76
2022/08/08 05:33:36;;;;;;;0.45;0.45;;;12.50;99.90;;;;;;5117124;28;20525;-76
2022/08/08 05:36:02;;;;;;;2.08;0.82;;;12.50;99.90;;;;;;5117007;28;20070;-76
2022/08/08 05:38:29;;;;;;;0.90;0.77;;;12.70;99.90;;;;;;5117094;28;20469;-76
2022/08/08 05:40:57;;;;;;;0.57;0.57;;;12.80;99.90;;;;;;5098614;28;20127;-77
2022/08/08 05:43:28;;;;;;;5.50;0.60;;;12.90;99.90;;;;;;5116749;28;20052;-75
2022/08/08 05:45:58;;;;;;;3.13;0.90;;;13.00;99.90;;;;;;5098330;28;20430;-76
2022/08/08 05:48:24;;;;;;;;;;;13.10;99.90;;;;;;5117303;28;20047;-76
2022/08/08 05:50:50;;;;;;;0.50;0.50;;;13.20;99.90;;;;;;5116810;28;19949;-76
2022/08/08 05:53:17;;;;;;;0.40;0.40;;;13.50;99.90;;;;;;5116447;28;20512;-76
2022/08/08 05:55:44;;;;;;;0.70;0.70;;;13.40;99.90;;;;;;5116367;28;20035;-76
2022/08/08 05:58:13;;;;;;;0.55;0.55;;;13.60;99.90;;;;;;5116373;28;20019;-76
2022/08/08 06:00:39;;;;;;;4.83;0.80;;;;;;;;;;5116470;28;20498;-75
2022/08/08 06:03:13;;;;;;;0.50;0.50;;;13.90;99.90;;;;;;5116130;28;20111;-76
2022/08/08 06:05:49;;;;;;;0.32;0.32;;;14.00;99.90;;;;;;5097678;28;20071;-76
2022/08/08 06:08:41;;;;;;;2.33;1.58;;;14.20;99.90;;;;;;5116342;28;20016;-76
2022/08/08 06:11:07;;;;;;;2.95;1.70;;;14.40;99.90;;;;;;5116152;28;20072;-77
2022/08/08 06:13:33;;;;;;;2.92;1.05;;;14.60;99.90;;;;;;5116168;28;20031;-79
2022/08/08 06:15:59;;;;;;;0.82;0.55;;;14.70;99.90;;;;;;5116018;28;20111;-77
2022/08/08 06:18:26;;;;;;;0.40;0.40;;;14.90;99.90;;;;;;5115939;28;20024;-76
2022/08/08 06:20:58;;;;;;;3.20;0.52;;;15.00;99.90;;;;;;5115809;28;20026;-77
2022/08/08 06:23:26;;;;;;;0.82;0.68;;;15.40;99.90;;;;;;5115898;28;20037;-76
2022/08/08 06:26:06;;;;;;;0.52;0.52;;;15.40;99.90;;;;;;5115827;28;20476;-74
2022/08/08 06:28:33;;;;;;;0.80;0.70;;;15.60;99.90;;;;;;5115747;28;20492;-75
2022/08/08 06:31:04;;;;;;;0.47;0.40;;;15.90;99.90;;;;;;5116037;28;20016;-76
2022/08/08 06:33:48;;;;;;;0.70;0.70;;;16.40;99.90;;;;;;5115993;28;20030;-76
2022/08/08 06:36:44;;;;;;;0.60;0.47;;;17.00;99.90;;;;;;5115693;28;20472;-76
2022/08/08 06:39:13;;;;;;;1.52;0.80;;;16.90;99.90;;;;;;5111644;28;20067;-76
2022/08/08 06:42:01;;;;;;;0.40;0.40;;;17.00;99.90;;;;;;5097172;28;20023;-77
2022/08/08 06:44:28;;;;;;;0.57;0.57;;;17.20;99.90;;;;;;5115419;28;20028;-76
2022/08/08 06:46:54;;;;;;;0.77;0.77;;;17.20;99.90;;;;;;5115914;28;20126;-75
2022/08/08 06:49:20;;;;;;;0.55;0.55;;;17.10;99.90;;;;;;5115632;28;20024;-76
2022/08/08 06:51:46;;;;;;;0.50;0.50;;;17.10;99.90;;;;;;5115269;28;20030;-74
2022/08/08 06:54:12;;;;;;;0.50;0.47;;;17.10;99.90;;;;;;5115418;28;20484;-74
2022/08/08 06:56:38;;;;;;;1.08;0.35;;;17.20;99.90;;;;;;5096987;28;20023;-76
2022/08/08 06:59:04;;;;;;;0.20;0.20;;;17.30;99.90;;;;;;5114851;28;20094;-74
2022/08/08 07:01:37;;;;;;;0.32;0.32;;;17.50;99.90;;;;;;5115372;28;20391;-74
2022/08/08 07:04:10;;;;;;;0.22;0.22;;;17.70;99.90;;;;;;5115369;28;20019;-74
2022/08/08 07:06:39;;;;;;;0.10;0.10;;;18.00;99.90;;;;;;5096971;28;20156;-73
2022/08/08 07:09:17;;;;;;;0.40;0.40;;;18.90;99.90;;;;;;5115304;28;20019;-74
2022/08/08 07:11:49;;;;;;;0.20;0.20;;;20.00;99.90;;;;;;5115303;28;20037;-75
2022/08/08 07:14:23;;;;;;;0.43;0.43;;;20.80;95.80;;;;;;5114807;28;20057;-75
2022/08/08 07:17:00;;;;;;;0.32;0.32;;;22.00;85.10;;;;;;5114866;28;20016;-75
2022/08/08 07:19:34;;;;;;;3.90;0.45;;;22.90;76.20;;;;;;5114975;28;20099;-74
2022/08/08 07:22:05;;;;;;;0.10;0.10;;;23.50;72.60;;;;;;5115037;28;20422;-74
2022/08/08 07:24:49;;;;;;;0.30;0.30;;;23.40;72.70;;;;;;5096745;28;20046;-74
2022/08/08 07:27:20;;;;;;;0.70;0.70;;;23.50;71.30;;;;;;5114983;28;20115;-74
2022/08/08 07:29:46;;;;;;;1.25;0.17;;;23.40;72.70;;;;;;5114726;28;20018;-75
2022/08/08 07:32:14;;;;;;;0.40;0.40;;;23.80;71.00;;;;;;5114757;28;20027;-75
2022/08/08 07:34:42;;;;;;;0.38;0.38;;;23.90;69.50;;;;;;5114635;28;20011;-75
2022/08/08 07:37:11;;;;;;;0.75;0.75;;;23.90;69.70;;;;;;5096216;28;20019;-74
2022/08/08 07:39:41;;;;;;;0.17;0.17;;;24.20;68.30;;;;;;5096230;28;20024;-75
2022/08/08 07:42:14;;;;;;;0.40;0.40;;;24.60;67.80;;;;;;5114693;28;20031;-74
2022/08/08 07:44:46;;;;;;;0.40;0.40;;;24.00;67.70;;;;;;5096060;28;20035;-75
2022/08/08 07:47:11;;;;;;;0.10;0.10;;;24.00;68.20;;;;;;5096276;28;20028;-74
2022/08/08 07:49:38;;;;;;;0.30;0.30;;;23.80;68.50;;;;;;5114500;28;20026;-74
2022/08/08 07:52:07;;;;;;;1.67;1.15;;;23.70;69.90;;;;;;5097168;28;20040;-74
2022/08/08 07:54:59;;;;;;;0.30;0.28;;;24.20;70.20;;;;;;5114748;28;20053;-74
2022/08/08 07:57:37;;;;;;;0.35;0.35;;;24.50;67.90;;;;;;5114207;28;20107;-74
2022/08/08 08:00:11;;;;;;;0.32;0.20;;;24.80;66.80;;;;;;5114111;28;20404;-75
2022/08/08 08:02:50;;;;;;;0.50;0.50;;;24.80;66.20;;;;;;5095991;28;20051;-74
2022/08/08 08:05:24;;;;;;;0.38;0.38;;;24.60;66.20;;;;;;5113978;28;20024;-74
2022/08/08 08:08:04;;;;;;;0.20;0.20;;;25.00;66.50;;;;;;5114034;28;20549;-74
2022/08/08 08:10:32;;;;;;;0.10;0.10;;;25.20;65.30;;;;;;5113133;28;20023;-75
2022/08/08 08:13:49;;;;;;;0.13;0.13;;;25.40;64.40;;;;;;5095691;28;20051;-74
2022/08/08 08:16:28;;;;;;;0.20;0.20;;;26.00;63.20;;;;;;5051595;28;20117;-74
2022/08/08 08:19:00;;;;;;;0.17;0.17;;;27.00;60.90;;;;;;5114108;28;20316;-75
2022/08/08 08:21:29;;;;;;;0.82;0.45;;;27.40;59.60;;;;;;5113945;28;20024;-75
2022/08/08 08:23:55;;;;;;;0.57;0.20;;;26.60;60.30;;;;;;5114197;28;20042;-75
2022/08/08 08:26:21;;;;;;;0.40;0.30;;;;;;;;;;5095204;28;20039;-75
2022/08/08 08:28:47;;;;;;;2.20;0.30;;;25.70;61.10;;;;;;5113612;28;20023;-75
2022/08/08 08:31:14;;;;;;;1.10;1.10;;;25.60;63.40;;;;;;5113655;28;20032;-74
2022/08/08 08:33:39;;;;;;;0.60;0.40;;;25.90;63.00;;;;;;5114516;28;20030;-74
2022/08/08 08:36:12;;;;;;;0.45;0.45;;;26.20;62.40;;;;;;5095649;28;20114;-75
2022/08/08 08:38:39;;;;;;;1.15;0.30;;;26.40;61.50;;;;;;5115124;28;20259;-74
2022/08/08 08:41:06;;;;;;;0.32;0.17;;;26.20;62.10;;;;;;5123869;28;20129;-75
2022/08/08 08:43:34;;;;;;;0.15;0.15;;;25.70;61.70;;;;;;5123153;28;20095;-74
2022/08/08 08:46:00;;;;;;;0.10;0.10;;;25.70;62.30;;;;;;5123247;28;20060;-75
2022/08/08 08:48:27;;;;;;;0.30;0.30;;;25.70;62.10;;;;;;5122756;28;20026;-74
2022/08/08 08:50:54;;;;;;;0.82;0.45;;;26.30;61.20;;;;;;5123123;28;20315;-74
2022/08/08 08:53:21;;;;;;;1.33;0.20;;;26.30;61.10;;;;;;5122809;28;20054;-74
2022/08/08 08:55:48;;;;;;;0.30;0.30;;;26.30;60.70;;;;;;5122376;28;20027;-74
2022/08/08 08:58:40;;;;;;;0.82;0.82;;;26.60;60.10;;;;;;5103820;28;20020;-75
2022/08/08 09:01:08;;;;;;;0.20;0.20;;;27.00;59.60;;;;;;5117649;28;20200;-75
2022/08/08 09:03:34;;;;;;;0.20;0.20;;;27.20;58.70;;;;;;5115294;28;20055;-75
2022/08/08 09:06:01;;;;;;;0.70;0.30;;;27.20;59.60;;;;;;5113461;28;20039;-74
2022/08/08 09:08:28;;;;;;;0.20;0.20;;;27.00;58.00;;;;;;5113567;28;20047;-76
2022/08/08 09:10:55;;;;;;;0.20;0.20;;;27.20;58.70;;;;;;5113289;28;20074;-79
2022/08/08 09:13:21;;;;;;;0.15;0.15;;;26.30;57.50;;;;;;5113360;28;20024;-74
2022/08/08 09:15:47;;;;;;;0.30;0.30;;;26.10;59.30;;;;;;5113231;28;20391;-75
2022/08/08 09:18:16;;;;;;;0.32;0.32;;;25.80;60.30;;;;;;5113163;28;20027;-75
2022/08/08 09:20:45;;;;;;;0.40;0.40;;;25.50;59.70;;;;;;5113765;28;20035;-75
2022/08/08 09:23:13;;;;;;;0.25;0.25;;;26.10;61.60;;;;;;5117028;28;20066;-74
2022/08/08 09:25:45;;;;;;;0.20;0.20;;;25.90;58.90;;;;;;5116878;28;20126;-75
2022/08/08 09:28:11;;;;;;;0.15;0.15;;;25.80;59.20;;;;;;5117007;28;20035;-74
2022/08/08 09:30:41;;;;;;;0.63;0.63;;;26.10;58.80;;;;;;5116985;28;20125;-74
2022/08/08 09:33:09;;;;;;;0.30;0.30;;;26.30;58.20;;;;;;5118697;28;20061;-75
2022/08/08 09:35:38;;;;;;;0.28;0.28;;;26.30;58.70;;;;;;5116910;28;20483;-74
2022/08/08 09:38:04;;;;;;;0.20;0.20;;;26.40;59.90;;;;;;5117827;28;20023;-74
2022/08/08 09:40:34;;;;;;;0.47;0.47;;;26.10;59.00;;;;;;5120283;28;20432;-74
2022/08/08 09:43:29;;;;;;;0.38;0.38;;;25.80;57.90;;;;;;5117613;28;20030;-75
2022/08/08 09:46:00;;;;;;;1.02;0.30;;;26.00;58.40;;;;;;5116644;28;20042;-75
2022/08/08 09:48:30;;;;;;;1.45;1.05;;;25.90;58.40;;;;;;5116591;28;20023;-75
2022/08/08 09:50:57;;;;;;;0.47;0.47;;;25.90;57.50;;;;;;5116592;28;20517;-78
2022/08/08 09:53:48;;;;;;;0.10;0.10;;;25.70;58.50;;;;;;5116543;28;20070;-75
2022/08/08 09:56:16;;;;;;;0.20;0.20;;;25.70;58.40;;;;;;5115309;28;20551;-74
2022/08/08 09:58:52;;;;;;;1.80;0.90;;;25.80;57.10;;;;;;5116333;28;20037;-74
2022/08/08 10:01:20;;;;;;;0.30;0.30;;;26.20;57.70;;;;;;5116100;28;20111;-74
2022/08/08 10:03:49;;;;;;;0.40;0.40;;;26.90;56.40;;;;;;5098128;28;20028;-74
2022/08/08 10:06:16;;;;;;;0.10;0.10;;;26.60;58.10;;;;;;5116198;28;20031;-74
2022/08/08 10:08:46;;;;;;;6.25;0.70;;;26.60;55.60;;;;;;5116239;28;20034;-74
2022/08/08 10:11:19;;;;;;;0.38;0.38;;;26.50;54.40;;;;;;5116055;28;20475;-74
2022/08/08 10:13:57;;;;;;;0.20;0.20;;;26.30;56.70;;;;;;5116066;28;20353;-75
2022/08/08 10:16:34;;;;;;;0.38;0.38;;;26.40;55.90;;;;;;5115976;28;20024;-74
2022/08/08 10:19:04;;;;;;;0.30;0.30;;;26.40;56.10;;;;;;5116173;28;20015;-74
2022/08/08 10:21:34;;;;;;;0.20;0.20;;;26.50;56.10;;;;;;5116055;28;20024;-74
2022/08/08 10:24:04;;;;;;;;;;;26.60;54.90;;;;;;5116608;28;20051;-74
2022/08/08 10:26:52;;;;;;;0.20;0.20;;;26.90;54.20;;;;;;5115978;28;19955;-74
2022/08/08 10:29:47;;;;;;;11.52;1.42;;;27.00;54.80;;;;;;5115952;28;20026;-74
2022/08/08 10:32:35;;;;;;;0.20;0.20;;;27.20;54.30;;;;;;5114814;28;20031;-74
2022/08/08 10:35:10;;;;;;;1.55;0.55;;;26.80;54.90;;;;;;5115637;28;20436;-74
2022/08/08 10:37:36;;;;;;;0.30;0.30;;;26.50;54.80;;;;;;5115562;28;20037;-79
2022/08/08 10:40:15;;;;;;;0.55;0.55;;;26.60;54.60;;;;;;5097435;28;20024;-78
2022/08/08 10:42:44;;;;;;;0.10;0.10;;;26.80;54.50;;;;;;5097321;28;20019;-79
2022/08/08 10:45:10;;;;;;;0.55;0.20;;;27.30;55.00;;;;;;5115503;28;20072;-78
2022/08/08 10:47:37;;;;;;;0.20;0.20;;;27.60;53.40;;;;;;5115514;28;20023;-78
2022/08/08 10:50:05;;;;;;;0.10;0.10;;;27.60;53.00;;;;;;5115292;28;20019;-76
2022/08/08 10:52:34;;;;;;;0.20;0.20;;;27.60;53.50;;;;;;5115041;28;20074;-79
2022/08/08 10:55:08;;;;;;;0.15;0.15;;;27.80;52.90;;;;;;5115591;28;20077;-77
2022/08/08 10:57:37;;;;;;;1.00;0.50;;;28.00;53.50;;;;;;5097088;28;20034;-76
2022/08/08 11:00:05;;;;;;;0.20;0.20;;;27.90;53.40;;;;;;5115282;28;20038;-79
2022/08/08 11:02:32;;;;;;;0.30;0.22;;;27.60;56.00;;;;;;5096421;28;20539;-75
2022/08/08 11:05:04;;;;;;;0.45;0.22;;;27.70;54.10;;;;;;5114935;28;20425;-75
2022/08/08 11:07:42;;;;;;;0.30;0.30;;;28.30;53.00;;;;;;5096619;28;20027;-75
2022/08/08 11:10:15;;;;;;;0.20;0.20;;;29.00;52.70;;;;;;5114908;28;20076;-75
2022/08/08 11:12:55;;;;;;;0.38;0.28;;;29.70;51.10;;;;;;5114845;28;20028;-75
2022/08/08 11:15:23;;;;;;;0.20;0.20;;;29.80;50.00;;;;;;5114851;28;20027;-74
2022/08/08 11:17:50;;;;;;;0.43;0.43;;;29.70;50.20;;;;;;5114883;28;20047;-74
2022/08/08 11:20:24;;;;;;;0.30;0.30;;;30.10;48.80;;;;;;5096538;28;20023;-74
2022/08/08 11:22:53;;;;;;;0.32;0.32;;;30.50;49.30;;;;;;5114589;28;20016;-74
2022/08/08 11:25:28;;;;;;;0.17;0.10;;;30.30;48.30;;;;;;5096239;28;20046;-75
2022/08/08 11:27:55;;;;;;;0.30;0.30;;;30.20;49.70;;;;;;5114453;28;20027;-75
2022/08/08 11:30:27;;;;;;;0.15;0.15;;;30.10;49.40;;;;;;5114533;28;20024;-74
2022/08/08 11:33:00;;;;;;;0.20;0.20;;;30.70;48.30;;;;;;5079259;28;20409;-76
2022/08/08 11:35:27;;;;;;;0.20;0.20;;;31.00;48.10;;;;;;5114366;28;20027;-74
2022/08/08 11:37:53;;;;;;;0.32;0.32;;;30.90;48.00;;;;;;5096091;28;20349;-75
2022/08/08 11:40:19;;;;;;;0.50;0.20;;;31.50;48.10;;;;;;5114373;28;20494;-77
2022/08/08 11:42:45;;;;;;;0.25;0.25;;;32.20;47.20;;;;;;5114527;28;20436;-74
2022/08/08 11:45:12;;;;;;;0.10;0.10;;;32.10;45.80;;;;;;5124779;28;20261;-76
2022/08/08 11:47:39;;;;;;;0.73;0.55;;;32.40;47.40;;;;;;5106657;28;20020;-75
2022/08/08 11:50:05;;;;;;;0.45;0.45;;;31.70;46.20;;;;;;5124956;28;20012;-76
2022/08/08 11:52:31;;;;;;;1.65;0.80;;;31.70;46.80;;;;;;5123572;28;20050;-76
2022/08/08 11:54:57;;;;;;;0.20;0.20;;;32.50;48.40;;;;;;5122037;28;20058;-75
2022/08/08 11:57:26;;;;;;;0.40;0.40;;;33.00;45.50;;;;;;5124466;28;20312;-75
2022/08/08 12:00:00;;;;;;;0.17;0.17;;;32.80;44.40;;;;;;5121277;28;20101;-74
2022/08/08 12:02:28;;;;;;;0.13;0.13;;;32.50;44.90;;;;;;5097381;28;20084;-76
2022/08/08 12:05:07;;;;;;;0.13;0.13;;;33.10;45.80;;;;;;5113586;28;20380;-75
2022/08/08 12:07:48;;;;;;;0.35;0.35;;;33.80;45.00;;;;;;5114219;28;20654;-74
2022/08/08 12:10:15;;;;;;;1.92;1.20;;;34.00;44.70;;;;;;5113971;28;20102;-75
2022/08/08 12:12:46;;;;;;;0.10;0.10;;;33.60;44.50;;;;;;5115653;28;20023;-76
2022/08/08 12:15:23;;;;;;;0.20;0.20;;;33.80;44.20;;;;;;5116112;28;20106;-75
2022/08/08 12:17:49;;;;;;;0.47;0.47;;;33.60;44.10;;;;;;5113868;28;20030;-75
2022/08/08 12:20:15;;;;;;;0.52;0.30;;;33.60;43.40;;;;;;5113456;28;20024;-75
2022/08/08 12:22:49;;;;;;;0.30;0.30;;;33.70;43.20;;;;;;5113868;28;20452;-75
2022/08/08 12:25:23;;;;;;;0.40;0.40;;;34.20;43.70;;;;;;5095007;28;20117;-75
2022/08/08 12:27:49;;;;;;;0.50;0.50;;;34.60;42.80;;;;;;5113725;28;20103;-75
2022/08/08 12:30:15;;;;;;;0.20;0.20;;;34.90;43.40;;;;;;5113474;28;20054;-75
2022/08/08 12:32:46;;;;;;;0.35;0.35;;;35.50;42.80;;;;;;5113479;28;20431;-75
2022/08/08 12:35:22;;;;;;;0.35;0.35;;;35.80;41.40;;;;;;5113465;28;20051;-74
2022/08/08 12:38:06;;;;;;;0.30;0.20;;;35.00;41.30;;;;;;5113339;28;20023;-75
2022/08/08 12:40:42;;;;;;;7.68;2.50;;;34.90;41.80;;;;;;5113186;28;20024;-75
2022/08/08 12:43:09;;;;;;;0.50;0.20;;;33.60;42.50;;;;;;5113199;28;20069;-74
2022/08/08 12:45:37;;;;;;;0.32;0.32;;;34.00;44.70;;;;;;5095819;28;20039;-76
2022/08/08 12:48:05;;;;;;;60.90;2.25;;;33.90;42.40;;;;;;5113252;28;20472;-75
2022/08/08 12:50:42;;;;;;;0.57;0.30;;;33.70;42.80;;;;;;5113332;28;20490;-75
2022/08/08 12:53:28;;;;;;;0.20;0.20;;;33.40;43.90;;;;;;5095668;28;20043;-74
2022/08/08 12:56:06;;;;;;;3.33;1.58;;;33.20;43.20;;;;;;5096058;28;20035;-74
2022/08/08 12:58:50;;;;;;;0.85;0.30;;;33.50;43.20;;;;;;5098588;28;20510;-75
2022/08/08 13:01:17;;;;;;;0.43;0.43;;;34.40;43.00;;;;;;5116727;28;20091;-75
2022/08/08 13:03:48;;;;;;;0.20;0.20;;;34.60;43.20;;;;;;5116933;28;20020;-75
2022/08/08 13:06:16;;;;;;;0.50;0.50;;;35.50;42.00;;;;;;5116923;28;20116;-74
2022/08/08 13:08:43;;;;;;;0.43;0.43;;;36.10;41.20;;;;;;5117022;28;20023;-76
2022/08/08 13:11:23;;;;;;;0.30;0.30;;;36.20;40.70;;;;;;5098778;28;20024;-76
2022/08/08 13:13:58;;;;;;;0.20;0.20;;;36.10;40.50;;;;;;5116854;28;20022;-76
2022/08/08 13:16:24;;;;;;;0.17;0.17;;;36.10;41.20;;;;;;5118600;28;20027;-74
2022/08/08 13:18:50;;;;;;;0.30;0.30;;;35.10;41.20;;;;;;5118018;28;20015;-75
2022/08/08 13:21:16;;;;;;;0.63;0.30;;;33.70;42.10;;;;;;5119032;28;20398;-76
2022/08/08 13:23:42;;;;;;;0.20;0.20;;;33.40;42.30;;;;;;5100550;28;20024;-76
2022/08/08 13:26:09;;;;;;;0.20;0.20;;;33.70;42.10;;;;;;5117101;28;20042;-75